createdAt,value
2014-09-20T05:42:46.625Z,100788
2014-09-20T05:43:04.813Z,100785
2014-09-20T05:43:23.000Z,100774
2014-09-20T05:43:41.191Z,100777
2014-09-20T05:43:59.378Z,100771
2014-09-20T05:44:17.581Z,100774
2014-09-20T05:44:35.771Z,100780
2014-09-20T05:44:53.958Z,100782
2014-09-20T05:45:12.146Z,100780
2014-09-20T05:45:30.334Z,100782
2014-09-20T05:45:48.522Z,100765
2014-09-20T05:46:06.709Z,100782
2014-09-20T05:46:24.897Z,100782
2014-09-20T05:46:43.086Z,100777
2014-09-20T05:47:01.274Z,100782
2014-09-20T05:47:19.461Z,100782
2014-09-20T05:47:37.667Z,100782
2014-09-20T05:47:55.855Z,100771
2014-09-20T05:48:14.042Z,100774
2014-09-20T05:48:32.230Z,100768
2014-09-20T05:48:50.418Z,100771
2014-09-20T05:49:08.606Z,100780
2014-09-20T05:49:26.793Z,100771
2014-09-20T05:49:44.984Z,100794
2014-09-20T05:50:03.171Z,100783
2014-09-20T05:50:21.359Z,100777
2014-09-20T05:50:39.546Z,100780
2014-09-20T05:50:57.736Z,100771
2014-09-20T05:51:15.923Z,100783
2014-09-20T05:51:34.127Z,100774
2014-09-20T05:51:52.315Z,100780
2014-09-20T05:52:10.503Z,100774
2014-09-20T05:52:28.690Z,100777
2014-09-20T05:52:46.878Z,100771
2014-09-20T05:53:05.067Z,100774
2014-09-20T05:53:23.255Z,100765
2014-09-20T05:53:41.442Z,100771
2014-09-20T05:53:59.633Z,100771
2014-09-20T05:54:17.820Z,100768
2014-09-20T05:54:36.008Z,100760
2014-09-20T05:54:54.211Z,100774
2014-09-20T05:55:12.399Z,100768
2014-09-20T05:55:30.587Z,100771
2014-09-20T05:55:48.774Z,100774
2014-09-20T05:56:06.965Z,100777
2014-09-20T05:56:25.152Z,100780
2014-09-20T05:56:43.355Z,100771
2014-09-20T05:57:01.543Z,100785
2014-09-20T05:57:19.732Z,100774
2014-09-20T05:57:37.920Z,100780
2014-09-20T05:57:56.123Z,100780
2014-09-20T05:58:14.312Z,100780
2014-09-20T05:58:32.500Z,100783
2014-09-20T05:58:50.687Z,100780
2014-09-20T05:59:08.875Z,100783
2014-09-20T05:59:27.080Z,100785
2014-09-20T05:59:45.268Z,100791
2014-09-20T06:00:03.455Z,100780
2014-09-20T06:00:21.645Z,100780
2014-09-20T06:00:39.832Z,100774
2014-09-20T06:00:58.020Z,100783
2014-09-20T06:01:16.223Z,100785
2014-09-20T06:01:34.412Z,100783
2014-09-20T06:01:52.600Z,100785
2014-09-20T06:02:10.787Z,100783
2014-09-20T06:02:28.977Z,100780
2014-09-20T06:02:47.180Z,100783
2014-09-20T06:03:05.367Z,100768
2014-09-20T06:03:23.555Z,100768
2014-09-20T06:03:41.744Z,100765
2014-09-20T06:03:59.932Z,100780
2014-09-20T06:04:18.135Z,100768
2014-09-20T06:04:36.324Z,100777
2014-09-20T06:04:54.512Z,100768
2014-09-20T06:05:12.699Z,100765
2014-09-20T06:05:30.889Z,100763
2014-09-20T06:05:49.076Z,100760
2014-09-20T06:06:07.280Z,100768
2014-09-20T06:06:25.469Z,100774
2014-09-20T06:06:43.657Z,100765
2014-09-20T06:07:01.844Z,100765
2014-09-20T06:07:20.047Z,100760
2014-09-20T06:07:38.237Z,100760
2014-09-20T06:07:56.424Z,100771
2014-09-20T06:08:14.612Z,100771
2014-09-20T06:08:32.817Z,100757
2014-09-20T06:08:51.004Z,100765
2014-09-20T06:09:09.192Z,100760
2014-09-20T06:09:27.380Z,100763
2014-09-20T06:09:45.568Z,100771
2014-09-20T06:10:03.755Z,100765
2014-09-20T06:10:21.943Z,100768
2014-09-20T06:10:40.148Z,100765
2014-09-20T06:10:58.335Z,100768
2014-09-20T06:11:16.523Z,100771
2014-09-20T06:11:34.712Z,100763
2014-09-20T06:11:52.916Z,100774
2014-09-20T06:12:11.103Z,100780
2014-09-20T06:12:29.293Z,100768
2014-09-20T06:12:47.480Z,100771
2014-09-20T06:13:05.683Z,100780
2014-09-20T06:13:23.902Z,100777
2014-09-20T06:13:42.091Z,100768
2014-09-20T06:14:00.295Z,100774
2014-09-20T06:14:18.482Z,100780
2014-09-20T06:14:36.672Z,100768
2014-09-20T06:14:54.859Z,100783
2014-09-20T06:15:13.047Z,100780
2014-09-20T06:15:31.252Z,100783
2014-09-20T06:15:49.439Z,100788
2014-09-20T06:16:07.627Z,100783
2014-09-20T06:16:25.832Z,100780
2014-09-20T06:16:44.019Z,100777
2014-09-20T06:17:02.207Z,100780
2014-09-20T06:17:20.410Z,100777
2014-09-20T06:17:38.599Z,100774
2014-09-20T06:17:56.803Z,100765
2014-09-20T06:18:14.990Z,100785
2014-09-20T06:18:33.179Z,100774
2014-09-20T06:18:51.382Z,100777
2014-09-20T06:19:09.569Z,100780
2014-09-20T06:19:27.775Z,100780
2014-09-20T06:19:45.963Z,100783
2014-09-20T06:20:04.150Z,100777
2014-09-20T06:20:22.353Z,100783
2014-09-20T06:20:40.543Z,100783
2014-09-20T06:20:58.730Z,100785
2014-09-20T06:21:16.934Z,100777
2014-09-20T06:21:35.123Z,100783
2014-09-20T06:21:53.311Z,100780
2014-09-20T06:22:11.498Z,100783
2014-09-20T06:22:29.701Z,100771
2014-09-20T06:22:47.891Z,100771
2014-09-20T06:23:06.078Z,100788
2014-09-20T06:23:24.281Z,100783
2014-09-20T06:23:42.471Z,100785
2014-09-20T06:24:00.658Z,100777
2014-09-20T06:24:18.861Z,100783
2014-09-20T06:24:37.049Z,100783
2014-09-20T06:24:55.238Z,100774
2014-09-20T06:25:13.442Z,100777
2014-09-20T06:25:31.629Z,100777
2014-09-20T06:25:49.819Z,100785
2014-09-20T06:26:08.022Z,100780
2014-09-20T06:26:26.209Z,100780
2014-09-20T06:26:44.412Z,100777
2014-09-20T06:27:02.602Z,100774
2014-09-20T06:27:20.789Z,100785
2014-09-20T06:27:38.992Z,100785
2014-09-20T06:27:57.198Z,100765
2014-09-20T06:28:15.385Z,100774
2014-09-20T06:28:33.573Z,100774
2014-09-20T06:28:51.760Z,100777
2014-09-20T06:29:09.965Z,100777
2014-09-20T06:29:28.153Z,100777
2014-09-20T06:29:46.340Z,100774
2014-09-20T06:30:04.530Z,100771
2014-09-20T06:30:22.717Z,100774
2014-09-20T06:30:40.905Z,100774
2014-09-20T06:30:59.108Z,100777
2014-09-20T06:31:17.297Z,100780
2014-09-20T06:31:35.485Z,100783
2014-09-20T06:31:53.672Z,100780
2014-09-20T06:32:11.862Z,100783
2014-09-20T06:32:30.049Z,100785
2014-09-20T06:32:48.237Z,100780
2014-09-20T06:33:06.424Z,100785
2014-09-20T06:33:24.629Z,100794
2014-09-20T06:33:42.817Z,100777
2014-09-20T06:34:01.004Z,100771
2014-09-20T06:34:19.210Z,100785
2014-09-20T06:34:37.397Z,100785
2014-09-20T06:34:55.600Z,100780
2014-09-20T06:35:13.788Z,100785
2014-09-20T06:35:31.977Z,100774
2014-09-20T06:35:50.165Z,100783
2014-09-20T06:36:08.368Z,100783
2014-09-20T06:36:26.557Z,100780
2014-09-20T06:36:44.745Z,100780
2014-09-20T06:37:02.948Z,100768
2014-09-20T06:37:21.137Z,100783
2014-09-20T06:37:39.325Z,100785
2014-09-20T06:37:57.512Z,100780
2014-09-20T06:38:15.716Z,100774
2014-09-20T06:38:33.905Z,100783
2014-09-20T06:38:52.093Z,100780
2014-09-20T06:39:10.280Z,100783
2014-09-20T06:39:28.485Z,100783
2014-09-20T06:39:46.673Z,100785
2014-09-20T06:40:04.860Z,100785
2014-09-20T06:40:23.048Z,100788
2014-09-20T06:40:41.237Z,100780
2014-09-20T06:40:59.440Z,100785
2014-09-20T06:41:17.628Z,100783
2014-09-20T06:41:35.817Z,100777
2014-09-20T06:41:54.020Z,100783
2014-09-20T06:42:12.208Z,100777
2014-09-20T06:42:30.397Z,100777
2014-09-20T06:42:48.585Z,100777
2014-09-20T06:43:06.788Z,100780
2014-09-20T06:43:24.976Z,100768
2014-09-20T06:43:43.165Z,100788
2014-09-20T06:44:01.353Z,100771
2014-09-20T06:44:19.556Z,100777
2014-09-20T06:44:37.745Z,100780
2014-09-20T06:44:55.933Z,100780
2014-09-20T06:45:14.136Z,100780
2014-09-20T06:45:32.325Z,100771
2014-09-20T06:45:50.607Z,100780
2014-09-20T06:46:08.763Z,100771
2014-09-20T06:46:26.952Z,100765
2014-09-20T06:46:45.155Z,100774
2014-09-20T06:47:03.343Z,100774
2014-09-20T06:47:21.546Z,100768
2014-09-20T06:47:39.735Z,100777
2014-09-20T06:47:57.938Z,100768
2014-09-20T06:48:16.125Z,100768
2014-09-20T06:48:34.330Z,100768
2014-09-20T06:48:52.533Z,100763
2014-09-20T06:49:10.721Z,100783
2014-09-20T06:49:28.908Z,100768
2014-09-20T06:49:47.115Z,100765
2014-09-20T06:50:05.302Z,100768
2014-09-20T06:50:23.505Z,100771
2014-09-20T06:50:41.695Z,100771
2014-09-20T06:50:59.898Z,100763
2014-09-20T06:51:18.085Z,100771
2014-09-20T06:51:36.288Z,100766
2014-09-20T06:51:54.478Z,100774
2014-09-20T06:52:12.681Z,100763
2014-09-20T06:52:30.869Z,100771
2014-09-20T06:52:49.074Z,100766
2014-09-20T06:53:07.261Z,100771
2014-09-20T06:53:25.464Z,100774
2014-09-20T06:53:43.667Z,100774
2014-09-20T06:54:01.857Z,100768
2014-09-20T06:54:20.044Z,100768
2014-09-20T06:54:38.248Z,100774
2014-09-20T06:54:56.437Z,100768
2014-09-20T06:55:14.640Z,100771
2014-09-20T06:55:32.843Z,100763
2014-09-20T06:55:51.031Z,100766
2014-09-20T06:56:09.220Z,100771
2014-09-20T06:56:27.423Z,100766
2014-09-20T06:56:45.611Z,100771
2014-09-20T06:57:03.816Z,100774
2014-09-20T06:57:22.004Z,100766
2014-09-20T06:57:40.207Z,100769
2014-09-20T06:57:58.410Z,100763
2014-09-20T06:58:16.599Z,100766
2014-09-20T06:58:34.787Z,100774
2014-09-20T06:58:52.990Z,100771
2014-09-20T06:59:11.195Z,100769
2014-09-20T06:59:29.383Z,100766
2014-09-20T06:59:47.586Z,100769
2014-09-20T07:00:05.773Z,100771
2014-09-20T07:00:23.963Z,100766
2014-09-20T07:00:42.166Z,100769
2014-09-20T07:01:00.353Z,100769
2014-09-20T07:01:18.558Z,100777
2014-09-20T07:01:36.746Z,100769
2014-09-20T07:01:54.949Z,100769
2014-09-20T07:02:13.137Z,100769
2014-09-20T07:02:31.326Z,100769
2014-09-20T07:02:49.529Z,100769
2014-09-20T07:03:07.717Z,100766
2014-09-20T07:03:25.922Z,100766
2014-09-20T07:03:44.109Z,100780
2014-09-20T07:04:02.312Z,100769
2014-09-20T07:04:20.500Z,100772
2014-09-20T07:04:38.689Z,100774
2014-09-20T07:04:56.893Z,100774
2014-09-20T07:05:15.080Z,100772
2014-09-20T07:05:33.285Z,100772
2014-09-20T07:05:51.473Z,100777
2014-09-20T07:06:09.676Z,100771
2014-09-20T07:06:27.865Z,100771
2014-09-20T07:06:46.068Z,100780
2014-09-20T07:07:04.256Z,100780
2014-09-20T07:07:22.443Z,100771
2014-09-20T07:07:40.649Z,100772
2014-09-20T07:07:58.836Z,100777
2014-09-20T07:08:17.039Z,100769
2014-09-20T07:08:35.229Z,100769
2014-09-20T07:08:53.432Z,100771
2014-09-20T07:09:11.619Z,100777
2014-09-20T07:09:29.824Z,100780
2014-09-20T07:09:48.012Z,100780
2014-09-20T07:10:06.215Z,100777
2014-09-20T07:10:24.403Z,100774
2014-09-20T07:10:42.592Z,100774
2014-09-20T07:11:00.795Z,100766
2014-09-20T09:45:22.543Z,100759
2014-09-20T09:45:40.748Z,100754
2014-09-20T09:45:58.936Z,100754
2014-09-20T09:46:17.139Z,100757
2014-09-20T09:46:35.329Z,100757
2014-09-20T09:46:53.532Z,100757
2014-09-20T09:47:11.719Z,100757
2014-09-20T09:47:29.922Z,100762
2014-09-20T09:47:48.112Z,100765
2014-09-20T09:48:06.315Z,100757
2014-09-20T09:48:24.502Z,100762
2014-09-20T09:48:42.708Z,100768
2014-09-20T09:49:00.895Z,100762
2014-09-20T09:49:19.098Z,100759
2014-09-20T09:49:37.288Z,100768
2014-09-20T09:49:55.491Z,100768
2014-09-20T09:50:13.678Z,100768
2014-09-20T09:50:31.881Z,100768
2014-09-20T09:50:50.071Z,100765
2014-09-20T09:51:08.274Z,100759
2014-09-20T09:51:26.462Z,100754
2014-09-20T09:51:44.667Z,100759
2014-09-20T09:52:02.854Z,100771
2014-09-20T09:52:21.057Z,100751
2014-09-20T09:52:39.247Z,100751
2014-09-20T09:52:57.450Z,100757
2014-09-20T09:53:15.637Z,100757
2014-09-20T09:53:33.843Z,100759
2014-09-20T09:53:52.030Z,100754
2014-09-20T09:54:10.233Z,100762
2014-09-20T09:54:28.421Z,100757
2014-09-20T09:54:46.610Z,100762
2014-09-20T09:55:04.813Z,100762
2014-09-20T09:55:23.001Z,100762
2014-09-20T09:55:41.189Z,100754
2014-09-20T09:55:59.392Z,100762
2014-09-20T09:56:17.580Z,100765
2014-09-20T09:56:35.767Z,100754
2014-09-20T09:56:53.974Z,100760
2014-09-20T09:57:12.161Z,100762
2014-09-20T09:57:30.349Z,100760
2014-09-20T09:57:48.538Z,100742
2014-09-20T09:58:06.741Z,100754
2014-09-20T09:58:24.929Z,100757
2014-09-20T09:58:43.116Z,100760
2014-09-20T09:59:01.321Z,100765
2014-09-20T09:59:19.509Z,100754
2014-09-20T09:59:37.696Z,100754
2014-09-20T09:59:55.901Z,100748
2014-09-20T10:00:14.089Z,100757
2014-09-20T10:00:32.276Z,100763
2014-09-20T10:00:50.480Z,100760
2014-09-20T10:01:08.668Z,100751
2014-09-20T10:01:26.856Z,100754
2014-09-20T10:01:45.043Z,100763
2014-09-20T10:02:03.249Z,100765
2014-09-20T10:02:21.452Z,100757
2014-09-20T10:02:39.640Z,100757
2014-09-20T10:02:57.827Z,100765
2014-09-20T10:03:16.032Z,100763
2014-09-20T10:03:34.220Z,100760
2014-09-20T10:03:52.423Z,100754
2014-09-20T10:04:10.613Z,100751
2014-09-20T10:04:28.816Z,100757
2014-09-20T10:04:47.003Z,100754
2014-09-20T10:05:05.206Z,100766
2014-09-20T10:05:23.396Z,100757
2014-09-20T10:05:41.583Z,100760
2014-09-20T10:05:59.786Z,100760
2014-09-20T10:06:17.976Z,100760
2014-09-20T10:06:36.179Z,100763
2014-09-20T10:06:54.367Z,100766
2014-09-20T10:07:12.572Z,100760
2014-09-20T10:07:30.775Z,100760
2014-09-20T10:07:48.962Z,100763
2014-09-20T10:08:07.165Z,100763
2014-09-20T10:08:25.355Z,100740
2014-09-20T10:08:43.542Z,100760
2014-09-20T22:05:02.048Z,100580
2014-09-20T22:05:20.237Z,100588
2014-09-20T22:05:38.425Z,100591
